createdAt,value
2022-08-05T00:01:36.204Z,18.25
2022-08-05T00:04:17.547Z,17.77
2022-08-05T00:06:47.223Z,16.85
2022-08-05T00:09:19.641Z,15.38
2022-08-05T00:11:55.376Z,14.13
2022-08-05T00:14:28.997Z,13.70
2022-08-05T00:16:58.113Z,11.73
2022-08-05T00:19:33.135Z,12.57
2022-08-05T00:22:02.358Z,10.93
2022-08-05T00:24:31.956Z,11.18
2022-08-05T00:27:00.586Z,9.77
2022-08-05T00:29:37.981Z,8.32
2022-08-05T00:32:13.507Z,9.90
2022-08-05T00:35:04.370Z,7.10
2022-08-05T00:37:51.322Z,7.45
2022-08-05T00:40:29.276Z,10.05
2022-08-05T00:43:00.637Z,5.90
2022-08-05T00:45:38.675Z,8.30
2022-08-05T00:48:13.036Z,6.85
2022-08-05T00:50:44.148Z,6.40
2022-08-05T00:54:01.062Z,11.32
2022-08-05T00:56:03.110Z,7.18
2022-08-05T00:58:31.508Z,9.43
2022-08-05T01:00:59.859Z,5.78
2022-08-05T01:03:33.479Z,7.57
2022-08-05T01:06:03.921Z,5.80
2022-08-05T01:08:43.426Z,8.40
2022-08-05T01:11:33.503Z,9.82
2022-08-05T01:14:15.442Z,6.72
2022-08-05T01:16:52.269Z,8.95
2022-08-05T01:20:02.124Z,6.28
2022-08-05T01:22:46.951Z,4.45
2022-08-05T01:25:41.102Z,7.43
2022-08-05T01:28:36.585Z,6.68
2022-08-05T01:31:16.153Z,6.97
2022-08-05T01:33:55.433Z,6.45
2022-08-05T01:36:32.085Z,5.75
2022-08-05T01:39:02.243Z,6.57
2022-08-05T01:41:37.677Z,5.30
2022-08-05T01:44:11.261Z,5.63
2022-08-05T01:46:46.611Z,4.13
2022-08-05T01:49:23.895Z,3.95
2022-08-05T01:51:59.661Z,5.65
2022-08-05T01:54:36.421Z,6.47
2022-08-05T01:58:29.500Z,5.93
2022-08-05T02:00:39.465Z,6.00
2022-08-05T02:03:24.318Z,5.25
2022-08-05T02:05:59.664Z,6.25
2022-08-05T02:08:30.746Z,5.10
2022-08-05T02:11:08.061Z,7.68
2022-08-05T02:13:53.402Z,6.47
2022-08-05T02:16:32.686Z,4.00
2022-08-05T02:19:12.033Z,6.15
2022-08-05T02:21:49.382Z,6.47
2022-08-05T02:24:23.611Z,7.68
2022-08-05T02:26:57.218Z,6.50
2022-08-05T02:29:59.556Z,7.38
2022-08-05T02:32:24.213Z,6.00
2022-08-05T02:35:09.649Z,7.00
2022-08-05T02:37:47.727Z,7.45
2022-08-05T02:40:25.123Z,6.72
2022-08-05T02:42:56.702Z,6.75
2022-08-05T02:45:26.262Z,5.93
2022-08-05T02:48:11.835Z,5.80
2022-08-05T02:50:44.398Z,6.43
2022-08-05T02:53:16.054Z,9.60
2022-08-05T02:55:54.796Z,5.95
2022-08-05T02:58:30.211Z,7.20
2022-08-05T03:01:02.935Z,5.57
2022-08-05T03:04:04.362Z,8.13
2022-08-05T03:06:53.821Z,9.65
2022-08-05T03:09:15.716Z,9.10
2022-08-05T03:11:56.973Z,8.70
2022-08-05T03:14:26.673Z,7.53
2022-08-05T03:16:55.092Z,8.57
2022-08-05T03:19:33.953Z,8.35
2022-08-05T03:22:04.999Z,7.22
2022-08-05T03:24:47.278Z,8.82
2022-08-05T03:27:19.970Z,7.72
2022-08-05T03:30:07.354Z,8.63
2022-08-05T03:32:37.612Z,11.00
2022-08-05T03:35:09.215Z,8.75
2022-08-05T03:37:45.749Z,7.85
2022-08-05T03:40:24.163Z,6.80
2022-08-05T03:43:15.711Z,8.68
2022-08-05T03:45:57.386Z,6.22
2022-08-05T03:48:28.969Z,9.70
2022-08-05T03:52:34.951Z,9.98
2022-08-05T03:55:34.006Z,6.82
2022-08-05T03:56:53.662Z,6.25
2022-08-05T03:59:29.199Z,8.90
2022-08-05T04:02:38.229Z,6.30
2022-08-05T04:05:10.977Z,7.72
2022-08-05T04:07:57.510Z,9.68
2022-08-05T04:10:32.169Z,20.92
2022-08-05T04:13:06.507Z,8.38
2022-08-05T04:15:36.291Z,7.63
2022-08-05T04:18:09.455Z,8.68
2022-08-05T04:20:38.394Z,11.30
2022-08-05T04:23:16.117Z,10.13
2022-08-05T04:26:00.190Z,7.55
2022-08-05T04:28:30.823Z,9.40
2022-08-05T04:31:01.498Z,10.48
2022-08-05T04:33:54.375Z,13.15
2022-08-05T04:36:45.674Z,10.25
2022-08-05T04:39:08.985Z,7.97
2022-08-05T04:41:38.675Z,10.18
2022-08-05T04:44:09.462Z,9.73
2022-08-05T04:46:38.903Z,11.18
2022-08-05T04:49:12.395Z,10.65
2022-08-05T04:51:44.457Z,9.43
2022-08-05T04:54:14.575Z,8.55
2022-08-05T04:56:43.637Z,6.55
2022-08-05T04:59:21.924Z,7.70
2022-08-05T05:02:07.456Z,7.75
2022-08-05T05:04:47.543Z,8.75
2022-08-05T05:07:17.218Z,14.50
2022-08-05T05:09:47.062Z,10.20
2022-08-05T05:12:15.351Z,16.58
2022-08-05T05:14:50.697Z,9.60
2022-08-05T05:17:23.935Z,8.48
2022-08-05T05:19:56.549Z,7.90
2022-08-05T05:22:26.141Z,7.85
2022-08-05T05:24:59.944Z,11.35
2022-08-05T05:27:45.377Z,9.80
2022-08-05T05:30:30.927Z,9.70
2022-08-05T05:33:16.433Z,9.10
2022-08-05T05:35:47.690Z,7.82
2022-08-05T05:38:22.450Z,10.55
2022-08-05T05:40:57.294Z,11.68
2022-08-05T05:43:56.536Z,8.73
2022-08-05T05:46:17.283Z,8.73
2022-08-05T05:48:48.126Z,9.05
2022-08-05T05:51:21.718Z,7.28
2022-08-05T05:53:57.697Z,11.43
2022-08-05T05:56:31.636Z,11.55
2022-08-05T05:59:03.541Z,10.38
2022-08-05T06:01:37.959Z,8.93
2022-08-05T06:04:11.294Z,9.65
2022-08-05T06:06:42.413Z,11.95
2022-08-05T06:09:17.419Z,10.38
2022-08-05T06:12:01.203Z,11.45
2022-08-05T06:14:30.803Z,12.25
2022-08-05T06:17:22.433Z,9.38
2022-08-05T06:19:56.938Z,8.18
2022-08-05T06:22:33.498Z,12.27
2022-08-05T06:25:25.047Z,9.90
2022-08-05T06:28:08.988Z,9.15
2022-08-05T06:30:39.885Z,9.68
2022-08-05T06:33:10.609Z,8.27
2022-08-05T06:36:05.656Z,10.05
2022-08-05T06:38:36.213Z,10.80
2022-08-05T06:41:07.822Z,9.65
2022-08-05T06:43:59.786Z,8.13
2022-08-05T06:46:29.873Z,7.90
2022-08-05T06:50:00.618Z,8.68
2022-08-05T06:52:36.732Z,9.73
2022-08-05T06:55:05.734Z,8.20
2022-08-05T06:58:02.610Z,11.95
2022-08-05T07:00:25.050Z,7.32
2022-08-05T07:02:54.444Z,8.40
2022-08-05T07:05:31.840Z,6.63
2022-08-05T07:08:10.923Z,8.05
2022-08-05T07:10:52.790Z,8.05
2022-08-05T07:13:57.711Z,7.82
2022-08-05T07:18:01.163Z,8.23
2022-08-05T07:20:31.343Z,7.20
2022-08-05T07:22:27.692Z,6.55
2022-08-05T07:25:23.027Z,6.50
2022-08-05T07:27:59.774Z,8.43
2022-08-05T07:30:34.272Z,8.07
2022-08-05T07:33:09.999Z,9.70
2022-08-05T07:36:04.333Z,5.38
2022-08-05T07:38:33.357Z,8.25
2022-08-05T07:42:06.943Z,11.30
2022-08-05T07:43:56.073Z,8.77
2022-08-05T07:46:38.146Z,7.15
2022-08-05T07:49:08.062Z,7.35
2022-08-05T07:52:02.495Z,5.70
2022-08-05T07:54:38.626Z,6.90
2022-08-05T07:57:17.891Z,6.50
2022-08-05T07:59:57.880Z,8.25
2022-08-05T08:02:31.219Z,4.60
2022-08-05T08:05:18.727Z,10.00
2022-08-05T08:07:58.991Z,5.00
2022-08-05T08:10:40.198Z,7.35
2022-08-05T08:13:11.496Z,5.78
2022-08-05T08:16:35.120Z,5.97
2022-08-05T08:18:33.633Z,4.97
2022-08-05T08:21:04.058Z,5.35
2022-08-05T08:24:10.610Z,7.80
2022-08-05T08:26:41.743Z,7.50
2022-08-05T08:29:29.420Z,7.97
2022-08-05T08:32:00.554Z,7.97
2022-08-05T08:34:57.977Z,6.60
2022-08-05T08:37:28.143Z,8.70
2022-08-05T08:39:56.595Z,6.28
2022-08-05T08:42:34.096Z,6.30
2022-08-05T08:45:23.786Z,7.32
2022-08-05T08:48:10.743Z,7.00
2022-08-05T08:51:21.941Z,8.55
2022-08-05T08:53:45.188Z,5.38
2022-08-05T08:56:13.717Z,5.03
2022-08-05T08:58:44.644Z,6.78
2022-08-05T09:01:18.218Z,7.10
2022-08-05T09:03:54.623Z,7.32
2022-08-05T09:06:29.501Z,6.80
2022-08-05T09:09:02.433Z,6.93
2022-08-05T09:11:51.371Z,7.35
2022-08-05T09:14:59.092Z,4.75
2022-08-05T09:17:42.733Z,8.10
2022-08-05T09:20:04.784Z,7.00
2022-08-05T09:23:09.546Z,5.03
2022-08-05T09:26:00.267Z,6.80
2022-08-05T09:28:32.154Z,8.07
2022-08-05T09:31:22.068Z,7.80
2022-08-05T09:33:56.584Z,8.48
2022-08-05T09:36:27.639Z,6.07
2022-08-05T09:39:16.502Z,6.93
2022-08-05T09:42:03.853Z,7.38
2022-08-05T09:44:37.975Z,7.85
2022-08-05T09:47:15.747Z,5.43
2022-08-05T09:50:01.375Z,3.83
2022-08-05T09:52:32.985Z,3.85
2022-08-05T09:55:55.147Z,6.28
2022-08-05T09:57:58.577Z,7.10
2022-08-05T10:00:34.336Z,6.57
2022-08-05T10:03:11.217Z,7.40
2022-08-05T10:05:41.778Z,46.58
2022-08-05T10:08:34.770Z,9.35
2022-08-05T10:10:59.165Z,6.82
2022-08-05T10:13:46.260Z,3.97
2022-08-05T10:16:41.599Z,5.28
2022-08-05T10:20:03.100Z,6.90
2022-08-05T10:22:30.058Z,7.45
2022-08-05T10:24:59.035Z,5.72
2022-08-05T10:28:09.150Z,5.63
2022-08-05T10:31:20.170Z,4.55
2022-08-05T10:33:10.193Z,6.22
2022-08-05T10:35:44.312Z,5.00
2022-08-05T10:38:15.402Z,4.78
2022-08-05T10:40:59.555Z,6.40
2022-08-05T10:43:51.850Z,6.93
2022-08-05T10:46:23.930Z,5.20
2022-08-05T10:49:01.514Z,4.82
2022-08-05T10:51:58.274Z,3.85
2022-08-05T10:54:56.481Z,5.38
2022-08-05T10:57:32.038Z,5.32
2022-08-05T11:00:19.213Z,4.43
2022-08-05T11:03:25.806Z,5.13
2022-08-05T11:06:15.579Z,4.20
2022-08-05T11:09:32.039Z,5.65
2022-08-05T11:12:50.898Z,4.88
2022-08-05T11:16:00.729Z,3.45
2022-08-05T11:18:32.568Z,4.38
2022-08-05T11:21:06.151Z,7.72
2022-08-05T11:24:04.818Z,5.25
2022-08-05T11:27:25.834Z,7.80
2022-08-05T11:30:01.490Z,5.90
2022-08-05T11:32:31.436Z,4.38
2022-08-05T11:35:01.165Z,4.70
2022-08-05T11:38:26.390Z,5.95
2022-08-05T11:41:12.675Z,6.75
2022-08-05T11:44:04.725Z,6.80
2022-08-05T11:47:09.819Z,4.88
2022-08-05T11:49:27.764Z,6.07
2022-08-05T11:51:57.909Z,8.95
2022-08-05T11:54:33.246Z,4.47
2022-08-05T11:57:08.854Z,7.53
2022-08-05T11:59:54.582Z,5.45
2022-08-05T12:02:30.561Z,5.25
2022-08-05T12:05:07.203Z,6.35
2022-08-05T12:08:03.757Z,5.32
2022-08-05T12:10:45.883Z,7.60
2022-08-05T12:13:47.446Z,5.45
2022-08-05T12:16:14.732Z,5.75
2022-08-05T12:18:49.608Z,6.68
2022-08-05T12:21:26.580Z,4.25
2022-08-05T12:24:04.881Z,4.88
2022-08-05T12:26:37.199Z,6.53
2022-08-05T12:29:09.521Z,3.45
2022-08-05T12:31:46.093Z,5.32
2022-08-05T12:34:23.698Z,3.55
2022-08-05T12:36:56.500Z,3.95
2022-08-05T12:39:37.476Z,6.93
2022-08-05T12:42:14.837Z,3.42
2022-08-05T12:44:45.953Z,5.03
2022-08-05T12:47:31.773Z,4.45
2022-08-05T12:50:02.262Z,3.58
2022-08-05T12:52:39.014Z,5.07
2022-08-05T12:55:25.578Z,5.93
2022-08-05T12:58:48.355Z,3.58
2022-08-05T13:02:00.691Z,4.13
2022-08-05T13:03:42.448Z,3.85
2022-08-05T13:06:20.701Z,3.90
2022-08-05T13:08:51.666Z,2.05
2022-08-05T13:11:35.085Z,4.10
2022-08-05T13:14:25.122Z,3.70
2022-08-05T13:17:11.259Z,5.38
2022-08-05T13:19:51.642Z,4.53
2022-08-05T13:22:27.985Z,1.77
2022-08-05T13:25:05.182Z,4.32
2022-08-05T13:27:41.273Z,2.42
2022-08-05T13:30:34.924Z,5.07
2022-08-05T13:33:02.122Z,2.65
2022-08-05T13:35:51.528Z,3.10
2022-08-05T13:38:34.186Z,4.88
2022-08-05T13:41:07.007Z,2.05
2022-08-05T13:43:44.094Z,5.70
2022-08-05T13:46:50.569Z,5.95
2022-08-05T13:49:31.069Z,2.22
2022-08-05T13:52:12.638Z,5.50
2022-08-05T13:54:41.293Z,2.75
2022-08-05T13:57:11.117Z,4.50
2022-08-05T13:59:55.547Z,3.45
2022-08-05T14:02:29.842Z,5.68
2022-08-05T14:05:19.612Z,4.68
2022-08-05T14:08:20.341Z,6.97
2022-08-05T14:10:50.120Z,5.00
2022-08-05T14:13:38.251Z,2.60
2022-08-05T14:16:11.574Z,7.00
2022-08-05T14:18:47.584Z,4.88
2022-08-05T14:22:07.505Z,3.00
2022-08-05T14:24:04.815Z,3.40
2022-08-05T14:26:35.846Z,4.18
2022-08-05T14:29:16.268Z,6.30
2022-08-05T14:32:02.980Z,5.63
2022-08-05T14:34:36.713Z,4.95
2022-08-05T14:37:06.030Z,4.75
2022-08-05T14:39:49.573Z,4.05
2022-08-05T14:42:25.080Z,3.60
2022-08-05T14:44:53.947Z,6.75
2022-08-05T14:48:02.495Z,6.20
2022-08-05T14:50:19.095Z,5.68
2022-08-05T14:52:53.441Z,4.38
2022-08-05T14:55:28.647Z,3.22
2022-08-05T14:58:11.135Z,5.90
2022-08-05T15:00:59.751Z,5.38
2022-08-05T15:03:34.103Z,5.53
2022-08-05T15:06:15.420Z,3.67
2022-08-05T15:08:59.471Z,5.47
2022-08-05T15:11:50.860Z,6.95
2022-08-05T15:14:35.838Z,4.03
2022-08-05T15:17:44.470Z,5.22
2022-08-05T15:20:00.000Z,6.78
2022-08-05T15:22:28.832Z,4.63
2022-08-05T15:24:58.912Z,3.60
2022-08-05T15:27:31.920Z,4.55
2022-08-05T15:30:00.784Z,3.72
2022-08-05T15:32:29.299Z,8.02
2022-08-05T15:35:04.091Z,6.57
2022-08-05T15:38:31.876Z,5.05
2022-08-05T15:41:04.232Z,5.68
2022-08-05T15:43:20.204Z,3.65
2022-08-05T15:45:59.868Z,5.55
2022-08-05T15:48:29.934Z,4.32
2022-08-05T15:51:03.653Z,4.05
2022-08-05T15:53:38.017Z,3.85
2022-08-05T15:56:21.104Z,7.65
2022-08-05T15:58:50.161Z,5.40
2022-08-05T16:01:20.023Z,5.80
2022-08-05T16:03:50.401Z,4.65
2022-08-05T16:06:21.021Z,4.07
2022-08-05T16:08:55.403Z,4.10
2022-08-05T16:11:39.938Z,3.85
2022-08-05T16:14:17.280Z,4.45
2022-08-05T16:16:47.129Z,4.72
2022-08-05T16:19:25.334Z,3.55
2022-08-05T16:22:06.334Z,4.70
2022-08-05T16:24:40.130Z,3.70
2022-08-05T16:27:15.978Z,2.83
2022-08-05T16:29:50.050Z,5.45
2022-08-05T16:32:28.819Z,3.63
2022-08-05T16:34:58.906Z,1.75
2022-08-05T16:38:15.604Z,2.72
2022-08-05T16:40:25.044Z,2.60
2022-08-05T16:42:58.173Z,2.15
2022-08-05T16:46:07.557Z,3.58
2022-08-05T16:48:25.782Z,3.45
2022-08-05T16:51:01.210Z,3.80
2022-08-05T16:53:32.250Z,2.60
2022-08-05T16:56:19.270Z,1.75
2022-08-05T16:58:47.998Z,3.13
2022-08-05T17:01:16.294Z,2.80
2022-08-05T17:03:47.269Z,2.20
2022-08-05T17:06:41.873Z,1.20
2022-08-05T17:09:11.566Z,1.83
2022-08-05T17:11:48.665Z,3.33
2022-08-05T17:14:22.284Z,2.78
2022-08-05T17:17:03.380Z,3.10
2022-08-05T17:19:32.958Z,4.97
2022-08-05T17:22:02.288Z,2.47
2022-08-05T17:24:38.616Z,4.15
2022-08-05T17:27:11.830Z,1.92
2022-08-05T17:29:44.327Z,2.28
2022-08-05T17:32:17.069Z,2.53
2022-08-05T17:34:47.849Z,2.03
2022-08-05T17:37:41.635Z,3.28
2022-08-05T17:40:12.336Z,1.80
2022-08-05T17:42:49.765Z,1.08
2022-08-05T17:45:22.115Z,2.40
2022-08-05T17:47:55.013Z,4.15
2022-08-05T17:50:29.482Z,3.35
2022-08-05T17:53:01.261Z,3.78
2022-08-05T17:55:37.686Z,3.03
2022-08-05T17:58:11.239Z,1.92
2022-08-05T18:00:44.981Z,4.78
2022-08-05T18:03:56.343Z,1.30
2022-08-05T18:06:12.106Z,1.77
2022-08-05T18:08:46.155Z,5.72
2022-08-05T18:11:32.621Z,2.08
2022-08-05T18:14:06.686Z,2.53
2022-08-05T18:16:47.049Z,1.73
2022-08-05T18:19:23.059Z,0.85
2022-08-05T18:22:07.638Z,1.17
2022-08-05T18:24:39.696Z,1.95
2022-08-05T18:27:12.316Z,3.72
2022-08-05T18:29:41.537Z,2.38
2022-08-05T18:32:13.051Z,3.90
2022-08-05T18:34:44.750Z,1.10
2022-08-05T18:37:33.664Z,3.35
2022-08-05T18:40:33.773Z,2.58
2022-08-05T18:42:52.274Z,1.45
2022-08-05T18:45:20.755Z,1.35
2022-08-05T18:47:56.820Z,1.00
2022-08-05T18:50:46.452Z,1.90
2022-08-05T18:53:20.531Z,1.75
2022-08-05T18:55:53.450Z,1.80
2022-08-05T18:58:28.607Z,1.23
2022-08-05T19:00:59.651Z,2.00
2022-08-05T19:03:53.420Z,1.58
2022-08-05T19:06:21.620Z,1.88
2022-08-05T19:08:50.686Z,1.08
2022-08-05T19:11:21.931Z,2.10
2022-08-05T19:14:01.062Z,1.25
2022-08-05T19:16:46.928Z,3.88
2022-08-05T19:19:15.734Z,2.00
2022-08-05T19:21:51.467Z,2.78
2022-08-05T19:24:34.533Z,1.85
2022-08-05T19:27:04.012Z,3.13
2022-08-05T19:29:35.778Z,2.08
2022-08-05T19:32:11.573Z,1.20
2022-08-05T19:34:40.779Z,2.28
2022-08-05T19:37:10.969Z,2.03
2022-08-05T19:39:45.859Z,2.38
2022-08-05T19:42:35.846Z,2.70
2022-08-05T19:45:07.682Z,1.17
2022-08-05T19:47:37.412Z,2.33
2022-08-05T19:50:10.572Z,1.08
2022-08-05T19:52:41.202Z,1.65
2022-08-05T19:56:14.202Z,2.70
2022-08-05T19:58:19.569Z,1.60
2022-08-05T20:00:49.049Z,1.20
2022-08-05T20:03:17.273Z,1.92
2022-08-05T20:05:51.334Z,1.40
2022-08-05T20:08:20.869Z,3.75
2022-08-05T20:10:53.935Z,2.38
2022-08-05T20:13:54.605Z,4.00
2022-08-05T20:16:12.321Z,1.98
2022-08-05T20:18:40.865Z,2.03
2022-08-05T20:21:09.686Z,1.95
2022-08-05T20:23:51.023Z,1.98
2022-08-05T20:26:24.603Z,2.03
2022-08-05T20:28:56.925Z,2.45
2022-08-05T20:31:43.258Z,2.70
2022-08-05T20:34:17.295Z,2.20
2022-08-05T20:36:46.022Z,2.90
2022-08-05T20:39:16.313Z,4.30
2022-08-05T20:41:46.651Z,2.38
2022-08-05T20:44:29.506Z,3.30
2022-08-05T20:47:03.084Z,2.78
2022-08-05T20:49:37.763Z,3.80
2022-08-05T20:52:07.666Z,3.65
2022-08-05T20:54:55.151Z,2.83
2022-08-05T20:57:43.560Z,1.95
2022-08-05T21:00:40.483Z,2.60
2022-08-05T21:03:08.178Z,2.45
2022-08-05T21:05:53.625Z,3.65
2022-08-05T21:08:26.883Z,3.17
2022-08-05T21:10:58.280Z,3.80
2022-08-05T21:13:47.784Z,4.65
2022-08-05T21:16:43.729Z,1.88
2022-08-05T21:19:13.270Z,2.58
2022-08-05T21:21:50.650Z,3.35
2022-08-05T21:24:21.802Z,3.25
2022-08-05T21:26:53.325Z,2.70
2022-08-05T21:29:32.243Z,4.05
2022-08-05T21:32:03.097Z,3.28
2022-08-05T21:34:35.392Z,1.95
2022-08-05T21:37:08.112Z,2.00
2022-08-05T21:39:40.271Z,4.47
2022-08-05T21:42:19.815Z,3.53
2022-08-05T21:44:57.684Z,3.17
2022-08-05T21:47:55.521Z,3.60
2022-08-05T21:50:16.703Z,2.67
2022-08-05T21:52:47.427Z,2.78
2022-08-05T21:55:17.092Z,2.25
2022-08-05T21:57:45.807Z,4.43
2022-08-05T22:00:16.024Z,2.50
2022-08-05T22:02:44.498Z,5.88
2022-08-05T22:05:15.336Z,3.75
2022-08-05T22:07:58.417Z,4.63
2022-08-05T22:10:29.105Z,3.65
2022-08-05T22:13:58.874Z,3.85
2022-08-05T22:16:00.411Z,3.30
2022-08-05T22:18:33.324Z,5.75
2022-08-05T22:21:04.235Z,5.75
2022-08-05T22:24:00.935Z,3.00
2022-08-05T22:26:50.572Z,2.38
2022-08-05T22:29:26.255Z,3.13
2022-08-05T22:31:59.196Z,4.93
2022-08-05T22:34:28.844Z,4.05
2022-08-05T22:37:00.447Z,6.85
2022-08-05T22:39:33.308Z,3.95
2022-08-05T22:42:11.385Z,2.83
2022-08-05T22:44:48.604Z,3.58
2022-08-05T22:47:29.198Z,4.85
2022-08-05T22:50:19.178Z,4.50
2022-08-05T22:52:52.571Z,3.92
2022-08-05T22:55:22.618Z,3.38
2022-08-05T22:57:52.307Z,2.55
2022-08-05T23:00:23.093Z,4.30
2022-08-05T23:02:52.048Z,2.60
2022-08-05T23:05:29.830Z,2.17
2022-08-05T23:08:05.983Z,4.72
2022-08-05T23:10:56.014Z,3.65
2022-08-05T23:13:24.436Z,5.13
2022-08-05T23:15:53.656Z,3.50
2022-08-05T23:18:23.810Z,4.07
2022-08-05T23:20:52.068Z,4.55
2022-08-05T23:23:21.624Z,2.97
2022-08-05T23:25:55.511Z,2.83
2022-08-05T23:28:28.667Z,4.80
2022-08-05T23:31:16.387Z,3.75
2022-08-05T23:34:05.043Z,2.95
2022-08-05T23:36:39.997Z,6.57
2022-08-05T23:39:17.630Z,4.00
2022-08-05T23:42:01.602Z,4.53
2022-08-05T23:44:32.264Z,4.47
2022-08-05T23:47:02.543Z,4.10
2022-08-05T23:49:43.029Z,7.03
2022-08-05T23:52:30.811Z,3.67
2022-08-05T23:55:06.992Z,2.83
2022-08-05T23:57:48.837Z,2.28
